Time;durP1;ratioP1;P1;durP2;ratioP2;P2;SDS_P1;SDS_P2;PMS_P1;PMS_P2;Temp;Humidity;BMP_temperature;BMP_pressure;BME280_temperature;BME280_humidity;BME280_pressure;Samples;Min_cycle;Max_cycle;Signal;HPM_P1;HPM_P2
2022/01/15 00:00:35;;;;;;;12.70;6.13;;;;;;;13.06;35.67;97644.81;5075758;28;20033;-30
2022/01/15 00:03:01;;;;;;;10.07;6.20;;;;;;;13.11;35.98;97647.06;5076220;28;20031;-30
2022/01/15 00:05:27;;;;;;;10.77;6.05;;;;;;;13.14;35.64;97643.53;5075856;28;20020;-30
2022/01/15 00:07:52;;;;;;;8.57;5.45;;;;;;;13.12;35.69;97645.09;5075906;28;20046;-30
2022/01/15 00:10:26;;;;;;;10.63;5.90;;;;;;;13.11;35.79;97644.34;5084468;28;20016;-29
2022/01/15 00:12:52;;;;;;;10.70;5.95;;;;;;;13.10;35.41;97637.38;5094595;28;20016;-30
2022/01/15 00:15:26;;;;;;;9.80;5.78;;;;;;;13.12;35.70;97634.97;5091547;28;20452;-31
2022/01/15 00:17:58;;;;;;;9.25;5.57;;;;;;;13.14;35.62;97627.19;5095786;28;20024;-30
2022/01/15 00:20:24;;;;;;;10.15;6.05;;;;;;;13.10;35.85;97614.81;5094341;28;20024;-31
2022/01/15 00:22:52;;;;;;;9.43;5.68;;;;;;;13.15;35.63;97623.28;5095520;28;20020;-29
2022/01/15 00:25:19;;;;;;;7.57;4.90;;;;;;;13.13;35.83;97611.25;5095688;28;20028;-30
2022/01/15 00:27:45;;;;;;;8.63;4.88;;;;;;;13.13;35.43;97614.72;5096244;28;20032;-30
2022/01/15 00:30:11;;;;;;;10.88;5.55;;;;;;;13.15;35.73;97617.84;5078815;28;20047;-30
2022/01/15 00:32:37;;;;;;;9.18;5.05;;;;;;;13.12;35.78;97610.47;5081263;28;20049;-30
2022/01/15 00:35:04;;;;;;;7.97;4.97;;;;;;;13.11;35.92;97610.88;5109127;28;20117;-30
2022/01/15 00:37:31;;;;;;;8.05;4.30;;;;;;;13.02;35.76;97613.38;5095260;28;20028;-30
2022/01/15 00:39:58;;;;;;;8.43;4.50;;;;;;;12.98;36.26;97618.13;5082889;28;20462;-30
2022/01/15 00:42:24;;;;;;;7.57;4.50;;;;;;;13.05;36.19;97612.53;5093747;28;20115;-30
2022/01/15 00:44:50;;;;;;;7.38;4.40;;;;;;;12.99;35.77;97606.78;5092447;28;20019;-29
2022/01/15 00:47:16;;;;;;;7.60;4.35;;;;;;;12.99;36.08;97604.06;5079014;28;20026;-30
2022/01/15 00:49:41;;;;;;;6.63;3.88;;;;;;;12.98;36.15;97596.34;5085951;28;20028;-31
2022/01/15 00:52:07;;;;;;;5.55;3.75;;;;;;;13.04;35.59;97597.38;5095523;28;20038;-30
2022/01/15 00:54:32;;;;;;;6.82;4.20;;;;;;;13.04;35.59;97611.78;5093736;28;20048;-29
2022/01/15 00:56:58;;;;;;;6.57;3.80;;;;;;;12.95;36.04;97600.66;5095139;28;20023;-29
2022/01/15 00:59:23;;;;;;;5.63;3.78;;;;;;;12.99;35.88;97590.44;5095023;28;20049;-30
2022/01/15 01:01:48;;;;;;;6.38;4.07;;;;;;;13.04;35.98;97594.66;5094893;28;20072;-30
2022/01/15 01:04:14;;;;;;;7.70;3.63;;;;;;;13.07;35.67;97597.34;5094891;28;20020;-30
2022/01/15 01:06:39;;;;;;;8.20;3.92;;;;;;;13.09;35.94;97600.44;5075678;28;20086;-30
2022/01/15 01:09:05;;;;;;;6.97;3.53;;;;;;;13.04;36.08;97592.72;5074597;28;20395;-29
2022/01/15 01:11:47;;;;;;;6.20;4.15;;;;;;;13.02;35.99;97586.13;5078168;28;20025;-30
2022/01/15 01:22:53;;;;;;;6.68;4.05;;;;;;;13.07;36.15;97589.16;5090097;28;20022;-30
2022/01/15 01:25:12;;;;;;;6.18;3.67;;;;;;;13.05;36.06;97593.47;5094094;28;20122;-30
2022/01/15 01:27:45;;;;;;;6.20;3.60;;;;;;;13.09;36.00;97586.81;5090744;28;20047;-30
2022/01/15 01:30:23;;;;;;;5.93;3.33;;;;;;;12.97;36.21;97581.94;5081394;28;20510;-30
2022/01/15 01:35:31;;;;;;;6.75;4.03;;;;;;;13.04;35.91;97572.88;5090748;28;20028;-30
2022/01/15 01:38:05;;;;;;;7.35;3.90;;;;;;;13.05;35.87;97571.69;5078819;28;20034;-30
2022/01/15 01:40:38;;;;;;;5.63;3.85;;;;;;;12.98;36.01;97580.75;5074588;28;20030;-31
2022/01/15 01:43:25;;;;;;;7.90;3.83;;;;;;;13.07;35.72;97570.09;5076923;28;20032;-30
2022/01/15 01:46:00;;;;;;;7.13;3.58;;;;;;;13.09;36.04;97575.91;5076799;28;20028;-29
2022/01/15 01:48:26;;;;;;;6.10;3.55;;;;;;;12.95;36.01;97565.25;5073643;28;20028;-30
2022/01/15 01:50:52;;;;;;;5.03;3.70;;;;;;;13.05;35.69;97566.25;5073878;28;20040;-30
2022/01/15 01:53:17;;;;;;;6.70;3.63;;;;;;;13.06;36.18;97554.19;5088993;28;20028;-30
2022/01/15 01:55:43;;;;;;;5.63;3.28;;;;;;;13.06;36.03;97557.66;5081108;28;20547;-31
2022/01/15 01:58:08;;;;;;;6.65;3.80;;;;;;;12.97;36.28;97556.66;5093616;28;20145;-30
2022/01/15 02:00:34;;;;;;;5.35;3.28;;;;;;;12.94;36.00;97561.00;5074260;28;20029;-30
2022/01/15 02:03:00;;;;;;;5.35;3.20;;;;;;;13.09;35.76;97556.84;5086372;28;20034;-30
2022/01/15 02:05:26;;;;;;;5.00;3.30;;;;;;;12.89;35.77;97553.28;5093162;28;20126;-29
2022/01/15 02:07:51;;;;;;;5.82;3.80;;;;;;;12.99;35.83;97548.84;5090472;28;20542;-30
2022/01/15 02:10:20;;;;;;;5.15;2.80;;;;;;;12.88;35.89;97547.06;5077204;28;20035;-31
2022/01/15 02:12:50;;;;;;;5.10;3.10;;;;;;;12.99;35.80;97548.84;5073500;28;20124;-30
2022/01/15 02:15:20;;;;;;;5.82;3.10;;;;;;;12.94;35.82;97548.13;5073477;28;20024;-30
2022/01/15 02:17:47;;;;;;;5.00;2.90;;;;;;;12.99;35.92;97544.16;5089277;28;20470;-29
2022/01/15 02:25:45;;;;;;;4.15;2.90;;;;;;;12.93;36.03;97532.22;5092181;28;20031;-31
2022/01/15 02:28:12;;;;;;;4.50;3.00;;;;;;;12.91;35.82;97526.41;5093082;28;20028;-30
2022/01/15 02:30:38;;;;;;;5.65;2.97;;;;;;;12.97;35.60;97529.44;5082098;28;20549;-30
2022/01/15 02:33:08;;;;;;;3.97;2.63;;;;;;;13.02;35.81;97526.22;5088586;28;20115;-30
2022/01/15 02:35:34;;;;;;;4.15;2.55;;;;;;;13.08;35.61;97528.06;5075747;28;20036;-31
2022/01/15 02:38:07;;;;;;;3.55;2.50;;;;;;;13.02;35.70;97518.06;5087845;28;20024;-30
2022/01/15 02:40:35;;;;;;;3.55;2.35;;;;;;;12.97;35.76;97521.28;5073312;28;20064;-29
2022/01/15 02:43:05;;;;;;;4.28;2.63;;;;;;;12.81;36.14;97517.25;5081299;28;20024;-30
2022/01/15 02:45:34;;;;;;;5.07;2.83;;;;;;;12.87;36.32;97517.53;5073073;28;20020;-30
2022/01/15 02:48:17;;;;;;;3.70;2.42;;;;;;;12.94;36.14;97509.25;5074132;28;20115;-30
2022/01/15 02:50:44;;;;;;;4.05;2.58;;;;;;;12.86;36.15;97502.38;5073033;28;20073;-30
2022/01/15 02:53:11;;;;;;;4.03;2.67;;;;;;;12.94;35.95;97509.25;5072827;28;20032;-31
2022/01/15 02:55:44;;;;;;;4.45;2.88;;;;;;;12.94;36.14;97499.13;5074245;28;20378;-30
2022/01/15 02:58:10;;;;;;;4.40;2.90;;;;;;;12.96;36.08;97496.00;5081728;28;20062;-30
2022/01/15 03:00:36;;;;;;;5.00;2.90;;;;;;;12.89;36.01;97496.88;5093091;28;20063;-30
2022/01/15 03:03:02;;;;;;;4.28;2.88;;;;;;;12.95;36.12;97495.22;5077571;28;20031;-29
2022/01/15 03:05:27;;;;;;;4.20;2.42;;;;;;;12.86;36.53;97496.94;5073077;28;20036;-30
2022/01/15 03:07:53;;;;;;;3.83;2.60;;;;;;;12.84;36.13;97485.72;5078668;28;20066;-30
2022/01/15 03:10:18;;;;;;;3.60;2.38;;;;;;;12.90;36.22;97478.59;5088709;28;20016;-30
2022/01/15 03:12:44;;;;;;;3.42;2.38;;;;;;;12.94;36.05;97471.13;5081178;28;20027;-32
2022/01/15 03:15:13;;;;;;;4.35;2.80;;;;;;;12.89;35.84;97468.88;5089709;28;20024;-31
2022/01/15 03:17:39;;;;;;;4.55;2.75;;;;;;;12.87;36.08;97465.78;5072455;28;20031;-30
2022/01/15 03:20:05;;;;;;;4.55;2.80;;;;;;;12.84;36.13;97469.38;5072920;28;20029;-30
2022/01/15 03:22:31;;;;;;;3.65;2.35;;;;;;;12.79;35.91;97470.59;5092688;28;20035;-30
2022/01/15 03:24:56;;;;;;;4.57;2.67;;;;;;;12.83;36.21;97462.38;5091979;28;20028;-30
2022/01/15 03:27:24;;;;;;;5.50;2.35;;;;;;;12.78;36.41;97465.56;5083286;28;20021;-32
2022/01/15 03:29:50;;;;;;;3.58;2.67;;;;;;;12.83;36.24;97465.88;5072421;28;20027;-33
2022/01/15 03:32:16;;;;;;;4.45;2.45;;;;;;;12.94;35.92;97466.47;5082584;28;20016;-33
2022/01/15 03:34:41;;;;;;;5.35;2.90;;;;;;;12.83;36.05;97465.88;5072901;28;20402;-34
2022/01/15 03:37:07;;;;;;;3.67;2.38;;;;;;;12.86;36.20;97470.47;5089365;28;20024;-33
2022/01/15 03:39:33;;;;;;;4.05;2.20;;;;;;;12.82;36.36;97458.13;5079835;28;20381;-30
2022/01/15 03:41:58;;;;;;;3.25;2.45;;;;;;;12.77;36.37;97466.75;5092092;28;20021;-30
2022/01/15 03:44:24;;;;;;;3.60;2.30;;;;;;;12.69;36.17;97454.47;5091849;28;20030;-31
2022/01/15 03:46:49;;;;;;;5.78;2.60;;;;;;;12.86;36.07;97448.69;5092472;28;20024;-30
2022/01/15 03:49:14;;;;;;;4.15;2.50;;;;;;;12.81;35.96;97449.19;5086539;28;20024;-31
2022/01/15 03:51:40;;;;;;;4.07;2.80;;;;;;;12.77;36.34;97453.16;5091687;28;20470;-30
2022/01/15 03:54:05;;;;;;;3.30;2.13;;;;;;;12.87;36.15;97454.91;5095543;28;20024;-31
2022/01/15 03:56:31;;;;;;;4.43;2.55;;;;;;;12.87;36.03;97460.34;5087621;28;20419;-30
2022/01/15 03:58:56;;;;;;;3.83;2.60;;;;;;;12.80;35.96;97461.25;5095651;28;20085;-30
2022/01/15 04:01:22;;;;;;;4.90;2.65;;;;;;;12.84;36.14;97467.41;5086536;28;20478;-31
2022/01/15 04:03:47;;;;;;;4.28;2.53;;;;;;;12.82;36.16;97463.56;5096468;28;20119;-32
2022/01/15 04:06:13;;;;;;;3.30;2.45;;;;;;;12.84;36.02;97458.47;5093180;28;20031;-31
2022/01/15 04:08:39;;;;;;;4.63;2.90;;;;;;;12.68;35.98;97464.56;5094117;28;20056;-31
2022/01/15 04:11:04;;;;;;;4.68;3.00;;;;;;;12.81;35.98;97462.03;5082764;28;20028;-30
2022/01/15 04:13:30;;;;;;;4.20;2.50;;;;;;;12.69;36.29;97455.22;5091500;28;20025;-30
2022/01/15 04:15:56;;;;;;;3.75;2.67;;;;;;;12.66;36.05;97456.06;5075891;28;20146;-31
2022/01/15 04:18:23;;;;;;;4.10;2.70;;;;;;;12.79;36.11;97462.44;5078171;28;20066;-30
2022/01/15 04:20:48;;;;;;;3.05;2.40;;;;;;;12.81;35.70;97453.88;5076349;28;20029;-30
2022/01/15 04:23:14;;;;;;;3.33;2.30;;;;;;;12.79;36.01;97464.41;5092784;28;20027;-30
2022/01/15 04:25:39;;;;;;;4.85;2.58;;;;;;;12.75;36.25;97460.94;5095446;28;20363;-30
2022/01/15 04:28:09;;;;;;;3.67;2.40;;;;;;;12.78;36.22;97458.19;5094828;28;20020;-32
2022/01/15 04:30:35;;;;;;;3.92;2.45;;;;;;;12.77;36.42;97455.88;5093567;28;20024;-30
2022/01/15 04:33:01;;;;;;;4.35;2.70;;;;;;;12.79;36.18;97453.50;5093923;28;20431;-30
2022/01/15 04:35:26;;;;;;;5.07;2.55;;;;;;;12.82;36.00;97455.41;5091040;28;20050;-31
2022/01/15 04:38:00;;;;;;;4.13;2.70;;;;;;;12.75;36.24;97450.06;5094910;28;20043;-30
2022/01/15 04:40:25;;;;;;;;;;;;;;;12.75;36.39;97448.13;5082123;28;20055;-30
2022/01/15 04:42:50;;;;;;;4.15;2.88;;;;;;;12.71;36.14;97443.94;5075677;28;20282;-31
2022/01/15 04:45:16;;;;;;;5.30;2.70;;;;;;;12.82;36.27;97442.56;5075606;28;20102;-30
2022/01/15 04:47:41;;;;;;;3.97;2.58;;;;;;;12.80;35.85;97444.16;5075107;28;20020;-30
2022/01/15 04:50:12;;;;;;;3.78;2.80;;;;;;;12.80;36.03;97441.44;5075052;28;20024;-31
2022/01/15 04:52:38;;;;;;;5.25;2.70;;;;;;;12.77;36.03;97440.31;5075495;28;20147;-32
2022/01/15 04:55:05;;;;;;;3.47;2.75;;;;;;;12.79;36.25;97445.34;5074703;28;20076;-30
2022/01/15 04:57:30;;;;;;;6.63;2.75;;;;;;;12.80;36.15;97460.50;5074761;28;20033;-30
2022/01/15 04:59:55;;;;;;;3.38;2.65;;;;;;;12.77;36.13;97461.31;5074407;28;20078;-31
2022/01/15 05:02:21;;;;;;;3.60;2.78;;;;;;;12.76;36.45;97462.50;5074678;28;20035;-30
2022/01/15 05:04:46;;;;;;;5.28;2.75;;;;;;;12.81;36.00;97462.81;5074591;28;20112;-30
2022/01/15 05:07:12;;;;;;;4.40;2.88;;;;;;;12.84;36.24;97461.97;5074735;28;20459;-31
2022/01/15 05:09:38;;;;;;;4.82;2.78;;;;;;;12.83;36.00;97462.38;5074563;28;20024;-30
2022/01/15 05:12:27;;;;;;;4.10;2.75;;;;;;;12.79;36.12;97464.41;5074549;28;20471;-30
2022/01/15 05:14:49;;;;;;;4.47;2.70;;;;;;;12.77;36.42;97466.75;5075272;28;20044;-30
2022/01/15 05:17:15;;;;;;;4.72;2.80;;;;;;;12.83;35.90;97471.31;5074506;28;20024;-31
2022/01/15 05:19:40;;;;;;;5.72;3.03;;;;;;;12.77;36.15;97466.75;5074221;28;20107;-30
2022/01/15 05:22:05;;;;;;;6.07;2.80;;;;;;;12.76;36.32;97465.97;5074255;28;20680;-30
2022/01/15 05:24:31;;;;;;;3.92;2.67;;;;;;;12.73;36.08;97460.63;5074143;28;20073;-30
2022/01/15 05:26:57;;;;;;;3.55;2.50;;;;;;;12.70;36.27;97458.72;5074431;28;20032;-30
2022/01/15 05:29:23;;;;;;;4.18;2.90;;;;;;;12.72;36.17;97464.53;5073992;28;20111;-30
2022/01/15 05:31:48;;;;;;;5.00;2.67;;;;;;;12.72;36.63;97465.31;5074277;28;20095;-31
2022/01/15 05:34:14;;;;;;;3.67;2.70;;;;;;;12.72;36.36;97459.09;5074072;28;20505;-30
2022/01/15 05:36:39;;;;;;;3.20;2.60;;;;;;;12.70;36.49;97461.44;5074144;28;20021;-30
2022/01/15 05:39:05;;;;;;;5.40;2.85;;;;;;;12.71;36.64;97457.53;5074054;28;20027;-30
2022/01/15 05:41:31;;;;;;;4.90;2.70;;;;;;;12.78;36.60;97457.41;5073847;28;20036;-30
2022/01/15 05:44:01;;;;;;;3.45;2.47;;;;;;;12.73;36.37;97455.94;5074054;28;20020;-31
2022/01/15 05:46:28;;;;;;;3.53;2.67;;;;;;;12.75;36.49;97456.28;5073722;28;20081;-30
2022/01/15 05:48:53;;;;;;;3.70;2.80;;;;;;;12.73;36.56;97458.66;5073765;28;20024;-31
2022/01/15 05:51:18;;;;;;;5.05;2.50;;;;;;;12.74;36.41;97452.03;5073623;28;20473;-31
2022/01/15 05:53:44;;;;;;;4.20;2.90;;;;;;;12.74;36.34;97462.13;5073632;28;20028;-30
2022/01/15 05:56:09;;;;;;;5.72;2.95;;;;;;;12.72;36.57;97457.13;5073271;28;20048;-30
2022/01/15 05:58:35;;;;;;;5.95;2.90;;;;;;;12.76;36.57;97465.22;5073635;28;20020;-30
2022/01/15 06:01:00;;;;;;;5.25;2.72;;;;;;;12.72;36.55;97453.63;5073641;28;20031;-30
2022/01/15 06:03:26;;;;;;;4.57;2.85;;;;;;;12.76;36.52;97457.06;5073725;28;20035;-30
2022/01/15 06:05:51;;;;;;;4.90;2.40;;;;;;;12.71;36.83;97465.72;5072012;28;20067;-30
2022/01/15 06:08:16;;;;;;;5.20;2.80;;;;;;;12.74;36.72;97467.56;5071216;28;20021;-30
2022/01/15 06:10:42;;;;;;;4.22;2.70;;;;;;;12.69;36.64;97476.25;5070731;28;20051;-30
2022/01/15 06:13:07;;;;;;;4.18;2.83;;;;;;;12.75;36.54;97474.56;5071200;28;20032;-31
2022/01/15 06:15:33;;;;;;;3.80;2.70;;;;;;;12.77;36.67;97477.66;5071320;28;20071;-30
2022/01/15 06:17:58;;;;;;;3.75;2.65;;;;;;;12.75;36.86;97467.16;5088902;28;20055;-30
2022/01/15 06:20:24;;;;;;;4.72;2.65;;;;;;;12.74;36.89;97473.03;5091186;28;20058;-31
2022/01/15 06:22:50;;;;;;;3.30;2.40;;;;;;;12.74;36.59;97478.47;5091561;28;20024;-30
2022/01/15 06:25:15;;;;;;;3.70;2.65;;;;;;;12.75;36.82;97485.44;5091542;28;20020;-30
2022/01/15 06:27:41;;;;;;;5.88;2.90;;;;;;;12.70;36.37;97489.44;5091222;28;20367;-30
2022/01/15 06:30:06;;;;;;;4.57;2.75;;;;;;;12.70;36.53;97494.09;5091261;28;20020;-31
2022/01/15 06:32:36;;;;;;;4.70;2.88;;;;;;;12.70;37.00;97488.66;5091285;28;20024;-30
2022/01/15 06:35:04;;;;;;;5.63;2.92;;;;;;;12.72;37.01;97491.75;5091215;28;20035;-30
2022/01/15 06:37:29;;;;;;;5.13;3.10;;;;;;;12.71;36.77;97496.41;5091280;28;20446;-30
2022/01/15 06:39:55;;;;;;;4.18;2.95;;;;;;;12.73;36.56;97496.00;5090929;28;20073;-31
2022/01/15 06:42:20;;;;;;;4.93;3.25;;;;;;;12.72;36.93;97497.97;5091323;28;20073;-30
2022/01/15 06:44:45;;;;;;;4.10;3.15;;;;;;;12.73;36.68;97498.72;5091245;28;20019;-30
2022/01/15 06:47:11;;;;;;;4.18;3.25;;;;;;;12.67;36.91;97501.13;5091120;28;20024;-30
2022/01/15 06:49:37;;;;;;;5.45;3.95;;;;;;;12.70;36.82;97496.81;5090903;28;20074;-32
2022/01/15 06:52:03;;;;;;;9.00;5.57;;;;;;;12.75;36.69;97497.09;5090671;28;20087;-30
2022/01/15 06:54:28;;;;;;;10.18;5.68;;;;;;;12.71;37.02;97506.53;5090698;28;20737;-30
2022/01/15 06:56:54;;;;;;;8.88;5.50;;;;;;;12.75;37.10;97497.09;5090982;28;20027;-30
2022/01/15 06:59:20;;;;;;;8.45;5.78;;;;;;;12.76;36.99;97506.03;5090939;28;20055;-30
2022/01/15 07:01:46;;;;;;;10.20;5.38;;;;;;;12.72;36.66;97508.84;5090823;28;20032;-30
2022/01/15 07:04:12;;;;;;;8.65;5.18;;;;;;;12.68;36.93;97510.06;5090557;28;20016;-30
2022/01/15 07:06:37;;;;;;;7.82;4.75;;;;;;;12.73;36.93;97504.94;5090827;28;20040;-31
2022/01/15 07:09:03;;;;;;;6.45;4.90;;;;;;;12.76;36.91;97498.66;5090923;28;20024;-31
2022/01/15 07:11:29;;;;;;;7.35;4.57;;;;;;;12.68;36.64;97504.63;5091015;28;20020;-32
2022/01/15 07:13:54;;;;;;;7.15;4.40;;;;;;;12.70;36.71;97505.00;5064286;28;20542;-30
2022/01/15 07:16:20;;;;;;;6.57;4.20;;;;;;;12.61;36.83;97505.50;5089494;28;20032;-30
2022/01/15 07:18:45;;;;;;;7.32;4.43;;;;;;;12.68;36.85;97504.63;5087876;28;20020;-30
2022/01/15 07:21:11;;;;;;;7.40;4.35;;;;;;;12.70;37.03;97508.50;5090336;28;20413;-30
2022/01/15 07:23:36;;;;;;;7.70;4.13;;;;;;;12.71;36.82;97514.69;5094632;28;20107;-30
2022/01/15 07:26:02;;;;;;;7.28;4.35;;;;;;;12.71;36.90;97506.53;5094606;28;20035;-30
2022/01/15 07:28:30;;;;;;;6.88;4.40;;;;;;;12.71;36.79;97514.69;5094232;28;20032;-31
2022/01/15 07:30:56;;;;;;;6.72;4.53;;;;;;;11.91;38.25;97510.81;5095769;28;20052;-31
2022/01/15 07:33:21;;;;;;;7.00;4.97;;;;;;;11.77;39.24;97510.97;5095902;28;20461;-31
2022/01/15 07:35:47;;;;;;;10.73;6.35;;;;;;;12.06;38.42;97520.31;5095722;28;20030;-31
2022/01/15 07:38:13;;;;;;;11.95;7.20;;;;;;;12.30;38.07;97510.25;5096569;28;20024;-31
2022/01/15 07:40:39;;;;;;;9.00;6.50;;;;;;;12.43;37.54;97518.63;5096549;28;20107;-31
2022/01/15 07:43:05;;;;;;;9.95;6.50;;;;;;;12.37;37.80;97515.59;5096354;28;20032;-31
2022/01/15 07:45:30;;;;;;;8.27;5.93;;;;;;;12.48;37.72;97516.22;5096403;28;20024;-31
2022/01/15 07:47:56;;;;;;;11.20;6.13;;;;;;;12.44;37.51;97510.06;5096311;28;20020;-31
2022/01/15 07:50:24;;;;;;;7.63;5.53;;;;;;;12.47;37.44;97519.34;5096439;28;20012;-31
2022/01/15 07:52:54;;;;;;;7.72;5.63;;;;;;;12.52;37.53;97518.88;5096360;28;20458;-31
2022/01/15 07:55:20;;;;;;;9.10;5.95;;;;;;;12.49;37.43;97516.97;5096040;28;20048;-31
2022/01/15 07:57:46;;;;;;;10.50;5.30;;;;;;;12.43;37.76;97524.06;5096063;28;20036;-31
2022/01/15 08:00:13;;;;;;;5.97;5.22;;;;;;;12.47;37.87;97525.56;5094618;28;20023;-30
2022/01/15 08:02:39;;;;;;;7.20;5.10;;;;;;;12.49;37.43;97522.41;5095154;28;20024;-30
2022/01/15 08:05:05;;;;;;;8.07;5.18;;;;;;;12.47;37.66;97533.72;5096058;28;20477;-30
2022/01/15 08:07:30;;;;;;;8.05;4.95;;;;;;;12.49;37.89;97519.69;5095885;28;20048;-31
2022/01/15 08:09:56;;;;;;;8.10;5.07;;;;;;;12.48;37.71;97518.19;5095970;28;20028;-31
2022/01/15 08:12:22;;;;;;;8.05;5.25;;;;;;;12.47;37.83;97517.41;5096070;28;20026;-30
2022/01/15 08:14:49;;;;;;;7.45;5.22;;;;;;;12.51;37.58;97514.59;5095935;28;20062;-31
2022/01/15 08:17:15;;;;;;;8.18;5.32;;;;;;;12.49;37.95;97516.97;5095857;28;20028;-30
2022/01/15 08:19:40;;;;;;;8.65;5.50;;;;;;;12.51;37.90;97515.38;5095788;28;20103;-31
2022/01/15 08:22:05;;;;;;;7.60;4.75;;;;;;;12.54;37.54;97521.94;5095765;28;20051;-32
2022/01/15 08:24:31;;;;;;;7.22;5.43;;;;;;;12.57;37.45;97518.41;5095571;28;20173;-31
2022/01/15 08:26:56;;;;;;;7.88;5.50;;;;;;;12.59;37.41;97518.78;5095733;28;20024;-31
2022/01/15 08:29:22;;;;;;;9.32;5.78;;;;;;;12.58;37.41;97523.44;5095514;28;20032;-31
2022/01/15 08:31:47;;;;;;;8.95;5.53;;;;;;;12.64;37.72;97522.97;5095394;28;20457;-33
2022/01/15 08:34:13;;;;;;;14.00;6.45;;;;;;;12.63;37.65;97532.31;5094701;28;20474;-31
2022/01/15 08:36:38;;;;;;;10.68;7.07;;;;;;;12.59;37.75;97532.38;5095724;28;20458;-30
2022/01/15 08:39:05;;;;;;;12.43;7.35;;;;;;;12.59;37.77;97522.28;5095503;28;20097;-31
2022/01/15 08:41:30;;;;;;;10.93;6.75;;;;;;;12.63;37.67;97524.13;5095232;28;20035;-32
2022/01/15 08:43:56;;;;;;;11.70;7.13;;;;;;;12.62;38.05;97519.88;5095179;28;20020;-31
2022/01/15 08:46:23;;;;;;;11.90;6.72;;;;;;;12.52;38.06;97516.91;5095167;28;20047;-30
2022/01/15 08:48:49;;;;;;;11.68;7.85;;;;;;;12.63;37.88;97511.31;5095311;28;20031;-31
2022/01/15 08:51:15;;;;;;;11.75;6.90;;;;;;;12.63;37.94;97511.31;5095176;28;20024;-31
2022/01/15 08:53:40;;;;;;;13.38;7.15;;;;;;;12.68;38.09;97512.81;5095149;28;20050;-31
2022/01/15 08:56:06;;;;;;;12.60;6.82;;;;;;;12.55;38.41;97516.09;5093607;28;20044;-30
2022/01/15 08:58:31;;;;;;;14.60;8.73;;;;;;;12.56;38.61;97506.00;5095355;28;20040;-31
2022/01/15 09:00:57;;;;;;;13.40;7.68;;;;;;;12.55;38.60;97513.38;5094905;28;20121;-31
2022/01/15 09:03:23;;;;;;;15.10;8.10;;;;;;;12.61;38.73;97515.66;5093845;28;20520;-31
2022/01/15 09:05:50;;;;;;;13.60;7.60;;;;;;;12.52;38.88;97516.91;5095298;28;20028;-31
2022/01/15 09:08:17;;;;;;;13.30;7.63;;;;;;;12.59;38.88;97513.34;5094918;28;20020;-31
2022/01/15 09:10:43;;;;;;;14.77;8.75;;;;;;;12.65;39.11;97513.63;5094760;28;20020;-31
2022/01/15 09:13:09;;;;;;;24.00;11.05;;;;;;;12.49;39.91;97516.97;5094612;28;20484;-31
2022/01/15 09:15:35;;;;;;;16.15;8.02;;;;;;;12.63;39.07;97524.13;5094686;28;20024;-30
2022/01/15 09:18:00;;;;;;;15.52;8.27;;;;;;;12.45;39.66;97532.59;5094809;28;20020;-31
2022/01/15 09:20:26;;;;;;;18.05;8.43;;;;;;;12.48;39.40;97529.06;5094469;28;20051;-31
2022/01/15 09:22:51;;;;;;;16.27;8.30;;;;;;;12.67;38.51;97535.75;5094551;28;20024;-30
2022/01/15 09:25:17;;;;;;;15.95;7.85;;;;;;;12.72;38.70;97529.84;5090917;28;20032;-31
2022/01/15 09:30:26;;;;;;;13.90;7.47;;;;;;;12.72;38.57;97541.50;5072139;28;20157;-31
2022/01/15 09:32:55;;;;;;;14.73;7.68;;;;;;;12.62;40.63;97539.69;5072207;28;20137;-31
2022/01/15 09:35:23;;;;;;;18.58;8.32;;;;;;;12.59;40.45;97538.59;5072035;28;20044;-31
2022/01/15 09:37:50;;;;;;;17.10;7.63;;;;;;;12.49;40.42;97539.50;5071776;28;20055;-30
2022/01/15 09:40:17;;;;;;;12.30;6.82;;;;;;;12.75;39.14;97534.44;5071842;28;20104;-31
2022/01/15 09:42:47;;;;;;;15.32;8.60;;;;;;;12.59;41.03;97535.88;5071956;28;20024;-31
2022/01/15 09:45:13;;;;;;;12.13;7.43;;;;;;;12.55;39.92;97531.66;5079063;28;20008;-32
2022/01/15 09:47:40;;;;;;;11.20;6.88;;;;;;;12.72;39.27;97532.56;5092031;28;20031;-31
2022/01/15 09:50:09;;;;;;;13.88;7.47;;;;;;;12.76;39.53;97536.00;5094471;28;20035;-31
2022/01/15 09:52:35;;;;;;;15.80;7.72;;;;;;;12.82;38.69;97537.06;5100654;28;20023;-32
2022/01/15 09:55:04;;;;;;;11.68;6.38;;;;;;;12.80;38.85;97534.00;5091722;28;20048;-31
2022/01/15 09:57:29;;;;;;;14.88;7.28;;;;;;;12.75;39.14;97534.44;5091829;28;20043;-31
2022/01/15 09:59:55;;;;;;;12.15;6.85;;;;;;;12.84;38.74;97532.75;5091878;28;20727;-31
2022/01/15 10:02:21;;;;;;;12.10;6.85;;;;;;;12.89;38.80;97539.66;5091591;28;20561;-30
2022/01/15 10:04:46;;;;;;;11.30;6.70;;;;;;;12.71;39.53;97541.91;5091874;28;20429;-32
2022/01/15 10:07:22;;;;;;;13.52;7.80;;;;;;;12.56;42.93;97555.75;5091836;28;20023;-30
2022/01/15 10:09:49;;;;;;;14.57;7.32;;;;;;;12.41;43.62;97559.84;5091734;28;20028;-30
2022/01/15 10:12:35;;;;;;;14.57;7.78;;;;;;;12.43;42.42;97554.00;5091755;28;20077;-30
2022/01/15 10:15:04;;;;;;;13.15;7.40;;;;;;;12.20;43.89;97558.19;5089698;28;20023;-31
2022/01/15 10:17:35;;;;;;;11.55;7.28;;;;;;;12.25;43.98;97556.97;5092091;28;20470;-31
2022/01/15 10:20:09;;;;;;;11.90;6.68;;;;;;;12.47;42.64;97552.78;5091281;28;20032;-30
2022/01/15 10:22:39;;;;;;;11.90;6.50;;;;;;;12.50;43.72;97551.94;5099758;28;20038;-31
2022/01/15 10:25:10;;;;;;;11.25;5.90;;;;;;;12.70;40.87;97545.81;5111621;28;20763;-31
2022/01/15 10:27:40;;;;;;;11.18;6.65;;;;;;;12.54;42.24;97541.78;5098699;28;20134;-31
2022/01/15 10:30:08;;;;;;;9.48;5.95;;;;;;;12.84;40.54;97540.94;5091577;28;20450;-31
2022/01/15 10:32:36;;;;;;;12.52;6.45;;;;;;;12.86;40.44;97535.03;5091415;28;20505;-31
2022/01/15 10:35:13;;;;;;;13.15;7.60;;;;;;;12.57;42.21;97529.28;5091449;28;20027;-31
2022/01/15 10:37:48;;;;;;;11.30;6.00;;;;;;;12.70;40.67;97537.66;5091064;28;20024;-31
2022/01/15 10:40:14;;;;;;;8.85;5.80;;;;;;;12.79;40.52;97535.94;5096076;28;20023;-31
2022/01/15 10:42:40;;;;;;;10.98;6.38;;;;;;;12.79;40.51;97532.44;5092230;28;20043;-31
2022/01/15 10:45:12;;;;;;;12.55;6.30;;;;;;;12.84;40.36;97532.75;5091225;28;20458;-32
2022/01/15 10:47:43;;;;;;;10.45;5.88;;;;;;;12.81;40.57;97528.13;5101117;28;20035;-31
2022/01/15 10:50:18;;;;;;;10.20;5.82;;;;;;;12.86;40.21;97529.59;5098161;28;20062;-31
2022/01/15 10:52:43;;;;;;;11.02;6.05;;;;;;;12.79;40.53;97525.06;5096192;28;20040;-30
2022/01/15 10:55:11;;;;;;;12.10;6.40;;;;;;;12.83;40.78;97527.72;5091218;28;20093;-31
2022/01/15 10:57:45;;;;;;;9.60;6.18;;;;;;;12.86;40.47;97519.47;5110559;28;20027;-31
2022/01/15 11:00:11;;;;;;;13.32;7.05;;;;;;;12.92;40.32;97522.50;5113347;28;20046;-32
2022/01/15 11:02:38;;;;;;;8.95;5.88;;;;;;;12.86;40.72;97510.53;5096971;28;20036;-31
2022/01/15 11:05:19;;;;;;;11.07;5.68;;;;;;;12.86;40.83;97505.88;5095293;28;20030;-30
2022/01/15 11:07:45;;;;;;;9.45;5.68;;;;;;;12.90;40.33;97498.41;5102146;28;20729;-30
2022/01/15 11:10:11;;;;;;;8.82;5.88;;;;;;;12.89;40.80;97501.53;5113858;28;20024;-31
2022/01/15 11:12:36;;;;;;;9.10;5.78;;;;;;;12.90;40.39;97497.63;5101132;28;20035;-31
2022/01/15 11:15:03;;;;;;;10.00;5.90;;;;;;;12.84;40.63;97493.88;5111301;28;20522;-30
2022/01/15 11:17:29;;;;;;;8.60;6.10;;;;;;;12.85;40.75;97500.84;5115539;27;20048;-31
2022/01/15 11:19:54;;;;;;;9.82;5.60;;;;;;;12.93;40.59;97488.66;5099354;28;20105;-30
2022/01/15 11:22:22;;;;;;;9.88;5.78;;;;;;;13.06;40.20;97492.31;5094894;28;20068;-30
2022/01/15 11:24:51;;;;;;;9.13;5.45;;;;;;;13.05;40.52;97490.78;5094866;28;20055;-31
2022/01/15 11:27:17;;;;;;;8.63;5.50;;;;;;;13.01;40.75;97484.59;5103001;28;20031;-30
2022/01/15 11:29:45;;;;;;;7.55;5.00;;;;;;;13.15;40.51;97480.88;5102262;28;20107;-31
2022/01/15 11:32:14;;;;;;;9.35;5.78;;;;;;;13.08;41.08;97479.06;5115038;28;20031;-31
2022/01/15 11:34:41;;;;;;;8.70;5.32;;;;;;;13.03;40.85;97476.78;5114051;28;20027;-31
2022/01/15 11:37:19;;;;;;;8.52;5.07;;;;;;;13.05;41.13;97476.38;5097121;28;20023;-30
2022/01/15 11:39:46;;;;;;;8.50;4.85;;;;;;;13.03;40.76;97479.53;5074297;28;20035;-31
2022/01/15 11:42:26;;;;;;;6.90;4.75;;;;;;;13.03;41.21;97482.25;5074292;28;20051;-30
2022/01/15 11:44:52;;;;;;;7.70;5.32;;;;;;;13.05;41.21;97468.97;5094872;28;20038;-30
2022/01/15 11:47:25;;;;;;;8.13;4.93;;;;;;;13.14;41.15;97473.88;5094643;28;20028;-30
2022/01/15 11:49:52;;;;;;;11.43;6.30;;;;;;;13.51;42.94;97470.06;5093744;28;20051;-30